Rubén Martínez

Scout - Málaga
6 Aug 2028
Sonntag
Verarbeitung

Persönlichkeit

Anpassungsfähigkeit (4) Ehrgeiz (15) Kontroverse (20) Loyalität (12) Druck (14) Professionalität (18) Fairness (1) Temperament (19)

Profil

Trainerstil Demokratisch
Lizenz Nationale A
Entschlossenheit 8
Menschenführung 7
Motivation 7
Disziplin 12
Arbeitszufriedenheit
100%
Ermüdung
0%
Rolle Scout
Gehalt 41.7K p/W
Vertrag 14.03.2030

Leistung

Verhalten Gut
Trainingseffektivität
54%
Spielerentwicklung
35%
Verletzungsprävention
45%
Taktische Umsetzung
55%

Letzte Ereignisse

Nahm an einer Scouting-Besprechung teil jetzt
Nahm an einer Scouting-Besprechung teil jetzt
Nahm an einer Scouting-Besprechung teil 7T her
Nahm an einer Scouting-Besprechung teil 7T her
Empfahl ein Transferziel 7T her
Nahm an einer Scouting-Besprechung teil 14T her
Nahm an einer Scouting-Besprechung teil 14T her
Empfahl ein Transferziel 14T her

Aktuell beobachtet

153
Spieler Verein Status Fähigkeit Vertrauen Beobachtet Zuletzt beobachtet Letzte Stimme
Guillermo Ortiz Betis Verloren 106 / 116 72% 1 31.07.2028 -
Jan Bürger Northampton Town Verloren 129 / 130 40% 5 03.07.2028 -
Martim Cunha Porto Aktiv 104 / 113 40% 2 03.07.2028 -
Kamaldeen Atiemo Wa All Stars Aktiv 102 / 116 40% 2 03.07.2028 -
Babis Kostoulas Oxford United Aktiv 138 / 144 40% 1 26.06.2028 -
Ibrahim Fullah Charlton Athletic Verloren 125 / 128 40% 1 26.06.2028 -
Tobiáš Pališčák Zlin Aktiv 109 / 112 40% 2 14.06.2028 -
Andrija Bulatović Chamois Niortais Aktiv 126 / 127 40% 3 14.06.2028 -
Sebastian Rodriguez Houston Dynamo Aktiv 116 / 118 40% 1 14.06.2028 -
Lucas Høgsberg RC Strasbourg Aktiv 141 / 142 40% 4 02.06.2028 -
Amine Boukamir Charleroi Aktiv 102 / 113 40% 1 02.06.2028 -
Ayden Heaven Portsmouth Aktiv 153 / 148 40% 5 31.05.2028 -
Andrey Ivlev Nizhniy Novgorod Aktiv 110 / 125 40% 3 31.05.2028 -
Celías Ingenthron Platense Aktiv 119 / 127 40% 1 31.05.2028 -
Olivier Leroux Mouscron Aktiv 96 / 108 40% 2 09.05.2028 -
Tyler Fletcher Rotherham United Aktiv 111 / 123 40% 4 08.05.2028 -
Trey Nyoni Rotherham United Aktiv 143 / 143 40% 5 08.05.2028 -
Simone Suppa Virtus Verona Aktiv 89 / 87 40% 1 08.05.2028 -
Honest Ahanor Atalanta Aktiv 132 / 145 40% 11 06.05.2028 -
Riquelme Thompson-Jones Accrington Stanley Aktiv 111 / 112 40% 2 05.05.2028 -
Konta Ismaily Aktiv 99 / 106 40% 2 03.05.2028 -
Musa Danjuma Umraniyespor Aktiv 91 / 111 40% 1 03.05.2028 -
Adnan Nainggolan KV Oostende Aktiv 108 / 107 40% 3 02.05.2028 -
Itumeleng Jali Spezia Aktiv 119 / 124 40% 2 02.05.2028 -
Josh Nichols Oldham Athletic Aktiv 120 / 123 40% 8 01.05.2028 -
Lamine Bèye Portimonense Aktiv 105 / 117 40% 1 01.05.2028 -
Daniel Banjaqui Benfica Aktiv 125 / 134 40% 2 28.04.2028 -
Pape Diong Westerlo Aktiv 115 / 121 40% 2 28.04.2028 -
Dmytro Strilchuk Podillia Aktiv 86 / 87 40% 2 24.04.2028 -
Abubakar Adams Aduana Stars Aktiv 92 / 81 40% 1 21.04.2028 -
Hervin Goyes Deportivo Pasto Aktiv 111 / 115 40% 1 20.04.2028 -
Josh Acheampong Everton Aktiv 139 / 142 40% 1 17.04.2028 -
Matvey Bardachev Zenit Aktiv 113 / 111 40% 1 13.04.2028 -
Kiani Inge Groningen Aktiv 111 / 114 40% 1 05.04.2028 -
Jorge Salinas Racing Santander Aktiv 126 / 138 40% 2 03.04.2028 -
Yury Oyarzo Racing Aktiv 87 / 101 40% 4 17.01.2028 -
Giovanni Leoni Lincoln City Aktiv 139 / 149 40% 1 17.01.2028 -
Zane Albarus Shrewsbury Town Aktiv 96 / 98 40% 1 17.01.2028 -
Toni Fruk Talleres Aktiv 132 / 133 66% 1 01.01.2028 -
Bitello Universidad de Chile Aktiv 135 / 135 68% 1 01.01.2028 -
Victor Hernandez Santa Fe Aktiv 125 / 121 40% 19 31.12.2027 -
Olaniyi Saheed Kwara United Aktiv 97 / 87 40% 2 19.12.2027 -
Nazareno Roselli Defensa y Justicia Aktiv 117 / 113 40% 4 19.12.2027 -
Colin Guske Orlando City Aktiv 105 / 95 40% 3 19.12.2027 -
Hosea Michael Remo Stars Aktiv 97 / 80 40% 3 18.12.2027 -
Nahuel Leivas Montevideo City Torque Aktiv 97 / 114 40% 3 16.12.2027 -
Alpha Touré FC Metz Aktiv 116 / 119 40% 1 16.12.2027 -
Caleb Yirenkyi Coventry City Aktiv 136 / 153 40% 4 15.12.2027 -
Daniel Idoko Ikorodu City Aktiv 86 / 105 40% 2 15.12.2027 -
Ulises Giménez River Plate Aktiv 106 / 121 40% 1 14.12.2027 -
David Damboama El-Kanemi Warriors Aktiv 79 / 104 40% 3 13.12.2027 -
Gideon Manaseh Ikorodu City Aktiv 94 / 105 40% 4 13.12.2027 -
Juan Camilo Córdoba Deportivo Pereira Aktiv 82 / 99 40% 3 10.12.2027 -
Archie Gray Southampton Aktiv 153 / 150 40% 2 10.12.2027 -
Esquerdinha Notts County Aktiv 125 / 120 40% 1 10.12.2027 -
Facundo Balatti Penarol Aktiv 98 / 114 40% 3 09.12.2027 -
Christos Mouzakitis Hull City Aktiv 135 / 142 40% 2 08.12.2027 -
Matias Siltanen Malmo FF Aktiv 132 / 142 40% 5 07.12.2027 -
Santiago Colidio Liepaja Aktiv 99 / 108 40% 2 07.12.2027 -
Héctor Fort Real Sociedad Aktiv 144 / 149 40% 2 07.12.2027 -
Alejandro Almaraz NK Celje Aktiv 106 / 114 40% 2 05.12.2027 -
Agustín Obregón River Plate Aktiv 114 / 117 40% 1 05.12.2027 -
Juan Manuel Villalba Tigre Aktiv 114 / 130 40% 5 02.12.2027 -
Alan Valdelamar Independiente Medellin Aktiv 96 / 103 40% 3 29.11.2027 -
Oscar Steinke Brånby Hammarby Aktiv 113 / 112 40% 1 26.11.2027 -
Felipe Faúndez O'Higgins Aktiv 107 / 106 40% 5 24.11.2027 -
Ignacio Fernández Boston River Aktiv 92 / 109 40% 3 20.11.2027 -
Yerry Gonzalez Universitario Popayan Aktiv 84 / 96 40% 1 14.11.2027 -
Lucas Camejo River Plate Aktiv 86 / 92 40% 4 09.11.2027 -
Hian Rincón Once Caldas Aktiv 86 / 88 40% 1 09.11.2027 -
Hugo Rojas Instituto Aktiv 110 / 110 40% 4 08.11.2027 -
Sebastián Flores Ferro Carril Oeste Aktiv 108 / 104 40% 2 18.10.2027 -
Esteban de Lima Tacuarembo Aktiv 87 / 106 40% 3 16.10.2027 -
Onyeuche Ujunwa Ikorodu City Aktiv 93 / 94 40% 2 13.10.2027 -
Ángel Aguayo Sol de America Aktiv 94 / 97 40% 1 12.10.2027 -
Issa Yusuf Shooting Stars Aktiv 94 / 88 40% 1 03.10.2027 -
Luciano Posadas Central Córdoba SdE Aktiv 99 / 93 40% 1 03.10.2027 -
Mohamed Moussa Koïta Mathare United Aktiv 92 / 101 40% 1 26.09.2027 -
Joel Ezra Enyimba Aktiv 98 / 105 40% 1 23.09.2027 -
Diego Vargas Universidad de Concepcion Aktiv 97 / 93 40% 2 17.09.2027 -
Chibueze Oputa Rangers International Aktiv 93 / 84 40% 2 17.09.2027 -
Juan Diego Perdomo Depor Aktiv 85 / 88 40% 1 14.09.2027 -
Tiago Gordillo San Miguel Aktiv 89 / 92 40% 2 13.09.2027 -
Godwin Oham Warri Wolves Aktiv 84 / 95 40% 2 13.09.2027 -
Gadiel Paoli River Plate Aktiv 98 / 102 40% 1 06.09.2027 -
Zahir Ibarra Defensa y Justicia Aktiv 107 / 113 40% 1 01.09.2027 -
Jonathan Asp-Jensen Deportivo La Coruña Aktiv 126 / 133 40% 8 31.05.2027 -
Samir El Mourabet RC Strasbourg Aktiv 129 / 122 40% 2 31.05.2027 -
Romelle Donovan Brentford Aktiv 123 / 124 40% 3 28.05.2027 -
Riley Owen Stevenage Aktiv 101 / 116 40% 2 27.05.2027 -
Gianluca Prestianni Benfica Aktiv 129 / 144 40% 3 26.05.2027 -
Alex Verón Vélez Aktiv 106 / 124 40% 1 26.05.2027 -
Gorka Gorosabel Real Sociedad Aktiv 102 / 109 40% 1 26.05.2027 -
Gessime Yassine RC Strasbourg Aktiv 124 / 133 40% 1 22.05.2027 -
Yussif Saidu Zaragoza Aktiv 129 / 130 40% 3 20.05.2027 -
Daniel Awuni Aduana Stars Aktiv 104 / 99 40% 3 19.05.2027 -
Yusi Alavés Aktiv 128 / 134 40% 3 18.05.2027 -
Olívio Tomé Benfica Aktiv 114 / 122 40% 1 18.05.2027 -
Nikolaus Wurmbrand Girona Aktiv 124 / 133 40% 1 18.05.2027 -
Jan Virgili Club Brugge Aktiv 141 / 129 40% 2 13.05.2027 -
Ethan Williams Peterborough United Aktiv 104 / 113 40% 2 13.05.2027 -
Sindre Walle Egeli Udinese Aktiv 133 / 143 40% 1 13.05.2027 -
Oscar Schwartau Norwich City Aktiv 115 / 123 40% 3 12.05.2027 -
Araphat Mohammed Ashanti Gold Aktiv 93 / 121 40% 1 11.05.2027 -
Nestory Irankunda Watford Aktiv 124 / 128 40% 1 11.05.2027 -
Mohamadou Kanté Crawley Town Aktiv 113 / 123 40% 3 10.05.2027 -
Stevan Manuel Benfica Aktiv 88 / 104 40% 1 07.05.2027 -
Kirill Glebov CSKA Moscow Aktiv 119 / 128 40% 1 03.05.2027 -
Manu Rodríguez Gijón Aktiv 104 / 108 40% 3 02.05.2027 -
Chemsdine Talbi Sunderland Aktiv 149 / 139 40% 5 01.05.2027 -
Othmane Maamma Watford Aktiv 116 / 133 40% 2 30.04.2027 -
Monty Batlhabane Polokwane City Aktiv 106 / 106 40% 2 30.04.2027 -
Asanele Bonani Chippa United Aktiv 87 / 100 40% 1 27.04.2027 -
Yael Padilla Tijuana Aktiv 100 / 112 40% 1 25.04.2027 -
Sam Amo-Ameyaw RC Strasbourg Aktiv 125 / 133 40% 1 20.04.2027 -
Mateus Mané Burnley Aktiv 125 / 147 40% 2 15.04.2027 -
Lander Astiazarán Real Sociedad Aktiv 95 / 110 40% 1 14.04.2027 -
Rocco Vata Watford Aktiv 118 / 130 40% 1 07.04.2027 -
Jon Guruzeta Eibar Aktiv 115 / 112 62% 1 11.01.2027 Befürworten
Brian Rodríguez Club America Aktiv 130 / 122 40% 5 31.12.2026 -
Brian Gutiérrez Guadalajara Aktiv 137 / 141 40% 6 31.12.2026 -
Roberto Fernández Braga Aktiv 146 / 135 40% 1 29.12.2026 Mehr Infos nötig
Jeremy Márquez Cruz Azul Aktiv 136 / 113 40% 1 25.12.2026 -
Oswin Appollis Orlando Pirates Aktiv 137 / 125 40% 2 23.12.2026 -
Duk Atlas Aktiv 106 / 110 40% 1 18.12.2026 -
Rômulo Tigres Aktiv 120 / 126 40% 1 17.12.2026 -
Omar El Hilali Espanyol Aktiv 141 / 141 40% 1 17.12.2026 -
Finn Azaz Southampton Aktiv 125 / 124 40% 1 16.12.2026 -
Joaquín Gho Argentinos Juniors Aktiv 124 / 129 40% 2 07.12.2026 -
Ezequiel Bullaude Santos Laguna Aktiv 128 / 135 40% 1 07.12.2026 -
Savinho Tottenham Aktiv 146 / 158 40% 2 05.12.2026 -
Carlos Álvarez Club America Aktiv 130 / 150 40% 2 04.12.2026 -
Andrés Montaño Cruz Azul Aktiv 105 / 109 40% 1 04.12.2026 -
Justo Giani Umraniyespor Aktiv 128 / 127 40% 1 02.12.2026 -
Juan Bisanz Huracán Aktiv 137 / 131 40% 3 30.11.2026 -
Pablo Torre Mallorca Aktiv 139 / 145 40% 1 20.11.2026 -
Jonathan Dubasin Osasuna Aktiv 131 / 140 40% 1 19.11.2026 -
Cody Gakpo Liverpool Aktiv 148 / 161 40% 1 13.11.2026 -
César Araújo Tigres Aktiv 135 / 138 40% 2 10.11.2026 -
Santiago Simón Toluca Aktiv 110 / 109 40% 1 10.11.2026 -
Bradley Zwane SuperSport United Aktiv 103 / 124 40% 1 07.11.2026 -
Ramiro Sordo Santos Laguna Aktiv 111 / 120 40% 1 05.11.2026 -
Adrián Sánchez Belgrano Aktiv 132 / 119 40% 1 02.11.2026 -
Aarón Molinas Defensa y Justicia Aktiv 128 / 120 40% 2 01.11.2026 -
Alejandro Piedrahita Deportivo Pereira Aktiv 119 / 130 40% 2 21.10.2026 -
Santiago Montiel Independiente Aktiv 118 / 118 40% 1 19.10.2026 -
Junior Hernández Deportes Tolima Aktiv 123 / 120 40% 1 17.10.2026 -
Rick Talleres Aktiv 126 / 123 40% 1 08.10.2026 -
Alexis Cuello San Lorenzo Aktiv 124 / 118 40% 1 07.10.2026 -
Omar Campos Cruz Azul Aktiv 127 / 126 40% 1 07.10.2026 -
Valentín Depietri Talleres Aktiv 121 / 130 40% 1 06.10.2026 -
Erik Lira Cruz Azul Aktiv 147 / 146 40% 1 06.10.2026 -
César Ibáñez Huracán Aktiv 119 / 118 40% 1 05.10.2026 -